createdAt,value
2019-03-30T00:01:47.787Z,11.80
2019-03-30T00:04:17.549Z,16.20
2019-03-30T00:06:47.293Z,14.57
2019-03-30T00:09:17.043Z,15.47
2019-03-30T00:11:46.794Z,18.40
2019-03-30T00:14:16.557Z,15.57
2019-03-30T00:16:46.339Z,15.70
2019-03-30T00:19:16.166Z,13.87
2019-03-30T00:21:45.909Z,17.77
2019-03-30T00:24:15.724Z,17.47
2019-03-30T00:26:45.492Z,18.07
2019-03-30T00:29:15.313Z,17.73
2019-03-30T00:31:45.047Z,17.27
2019-03-30T00:34:14.821Z,16.33
2019-03-30T00:36:44.567Z,14.33
2019-03-30T00:39:14.312Z,16.43
2019-03-30T00:41:43.995Z,17.30
2019-03-30T00:44:13.773Z,18.10
2019-03-30T00:46:43.470Z,17.13
2019-03-30T00:49:13.251Z,14.43
2019-03-30T00:51:42.896Z,19.80
2019-03-30T00:54:12.661Z,15.63
2019-03-30T00:56:42.416Z,12.20
2019-03-30T00:59:12.323Z,17.93
2019-03-30T01:01:42.094Z,22.43
2019-03-30T01:04:11.864Z,16.47
2019-03-30T01:06:41.719Z,21.00
2019-03-30T01:09:11.585Z,15.93
2019-03-30T01:11:41.411Z,18.33
2019-03-30T01:14:11.178Z,18.30
2019-03-30T01:16:40.980Z,18.27
2019-03-30T01:19:10.832Z,18.80
2019-03-30T01:21:40.637Z,19.00
2019-03-30T01:24:10.436Z,16.93
2019-03-30T01:26:40.187Z,19.63
2019-03-30T01:29:09.839Z,20.40
2019-03-30T01:31:39.622Z,18.83
2019-03-30T01:34:09.288Z,19.43
2019-03-30T01:36:39.142Z,19.70
2019-03-30T01:39:09.393Z,17.17
2019-03-30T01:41:39.302Z,18.33
2019-03-30T01:44:09.167Z,18.90
2019-03-30T01:46:38.986Z,19.63
2019-03-30T01:49:08.742Z,17.27
2019-03-30T01:51:38.507Z,19.07
2019-03-30T01:54:08.285Z,16.80
2019-03-30T01:56:38.048Z,20.10
2019-03-30T01:59:26.705Z,22.63
2019-03-30T02:01:56.578Z,19.63
2019-03-30T12:11:31.242Z,8.90
2019-03-30T12:14:00.991Z,6.97
2019-03-30T12:16:30.656Z,7.22
2019-03-30T12:19:00.576Z,7.87
2019-03-30T12:21:30.445Z,6.50
2019-03-30T12:24:00.436Z,6.58
2019-03-30T12:26:30.196Z,6.60
2019-03-30T12:28:59.949Z,7.28
2019-03-30T12:31:29.815Z,7.87
2019-03-30T12:33:59.574Z,8.15
2019-03-30T12:36:29.422Z,7.28
2019-03-30T12:38:59.171Z,5.90
2019-03-30T12:41:28.925Z,8.33
2019-03-30T12:43:58.582Z,6.17
2019-03-30T12:46:31.274Z,8.55
2019-03-30T12:49:00.995Z,6.80
2019-03-30T12:51:30.672Z,10.10
2019-03-30T12:54:00.407Z,6.35
2019-03-30T12:56:30.118Z,7.30
2019-03-30T12:58:59.825Z,6.85
2019-03-30T13:01:29.607Z,9.23
2019-03-30T13:03:59.685Z,9.88
2019-03-30T13:06:29.453Z,6.45
2019-03-30T13:08:59.170Z,6.60
2019-03-30T13:11:28.963Z,10.90
2019-03-30T13:13:58.606Z,7.05
2019-03-30T13:16:28.724Z,7.90
2019-03-30T13:18:58.462Z,6.75
2019-03-30T13:21:28.219Z,11.28
2019-03-30T13:23:58.058Z,7.25
2019-03-30T13:26:29.430Z,8.03
2019-03-30T13:28:59.763Z,7.85
2019-03-30T13:31:30.066Z,7.00
2019-03-30T13:33:59.845Z,8.28
2019-03-30T13:36:43.107Z,8.25
2019-03-30T13:39:12.816Z,7.28
2019-03-30T13:41:42.548Z,6.92
2019-03-30T13:44:12.313Z,6.05
2019-03-30T13:46:42.133Z,7.35
2019-03-30T13:49:11.999Z,7.10
2019-03-30T13:51:41.826Z,7.90
2019-03-30T13:54:11.577Z,9.48
2019-03-30T13:56:41.456Z,10.03
2019-03-30T13:59:11.190Z,8.78
2019-03-30T14:01:40.938Z,8.68
2019-03-30T14:04:10.681Z,7.17
2019-03-30T14:06:40.381Z,7.75
2019-03-30T14:09:10.166Z,14.03
2019-03-30T14:11:39.968Z,8.03
2019-03-30T14:14:09.710Z,9.05
2019-03-30T14:16:39.574Z,7.92
2019-03-30T14:19:09.388Z,6.97
2019-03-30T14:21:39.132Z,6.92
2019-03-30T14:24:08.877Z,7.28
2019-03-30T14:26:38.631Z,7.62
2019-03-30T14:29:08.327Z,8.23
2019-03-30T14:31:38.033Z,8.78
2019-03-30T14:34:07.872Z,8.88
2019-03-30T14:36:37.850Z,9.03
2019-03-30T14:39:08.091Z,13.05
2019-03-30T14:41:37.908Z,11.78
2019-03-30T14:44:26.584Z,10.05
2019-03-30T14:46:56.392Z,8.45
2019-03-30T14:49:26.164Z,7.15
2019-03-30T14:51:56.003Z,8.90
2019-03-30T14:54:25.794Z,8.35
2019-03-30T14:56:55.660Z,8.18
2019-03-30T14:59:27.563Z,9.70
2019-03-30T15:01:57.236Z,9.88
2019-03-30T15:04:27.162Z,8.98
2019-03-30T15:06:56.990Z,12.07
2019-03-30T15:09:26.750Z,8.10
2019-03-30T15:11:56.744Z,9.70
2019-03-30T15:14:26.587Z,6.42
2019-03-30T15:16:56.341Z,8.75
2019-03-30T15:19:26.004Z,7.15
2019-03-30T15:21:55.765Z,8.30
2019-03-30T15:24:26.053Z,6.75
2019-03-30T15:27:00.402Z,8.60
2019-03-30T15:29:27.716Z,7.70
2019-03-30T15:31:57.489Z,7.97
2019-03-30T15:34:27.165Z,8.48
2019-03-30T15:36:57.004Z,7.12
2019-03-30T15:39:26.744Z,8.73
2019-03-30T15:41:56.491Z,8.30
2019-03-30T15:44:26.327Z,8.50
2019-03-30T15:46:56.416Z,6.37
2019-03-30T15:49:28.482Z,6.03
2019-03-30T15:51:58.128Z,7.87
2019-03-30T15:54:31.269Z,6.92
2019-03-30T15:57:13.454Z,6.62
2019-03-30T15:59:32.398Z,7.40
2019-03-30T16:02:02.009Z,7.67
2019-03-30T16:04:31.800Z,7.92
2019-03-30T16:07:01.578Z,6.30
2019-03-30T16:09:31.307Z,5.53
2019-03-30T16:12:01.028Z,6.75
2019-03-30T16:14:30.848Z,7.00
2019-03-30T16:17:00.586Z,7.70
2019-03-30T16:19:30.366Z,6.83
2019-03-30T16:22:00.253Z,7.12
2019-03-30T16:24:32.962Z,7.90
2019-03-30T16:27:02.792Z,10.85
2019-03-30T16:29:32.537Z,8.68
2019-03-30T16:32:02.360Z,11.35
2019-03-30T16:34:32.309Z,9.93
2019-03-30T16:37:02.083Z,7.95
2019-03-30T16:39:34.639Z,9.78
2019-03-30T16:42:03.612Z,9.00
2019-03-30T16:44:33.296Z,10.23
2019-03-30T16:47:03.019Z,8.68
2019-03-30T16:49:32.811Z,9.95
2019-03-30T16:52:02.548Z,14.10
2019-03-30T16:54:32.292Z,9.75
2019-03-30T16:57:02.149Z,19.23
2019-03-30T16:59:31.851Z,12.43
2019-03-30T17:02:03.983Z,12.23
2019-03-30T17:04:33.739Z,10.45
2019-03-30T17:07:03.403Z,10.72
2019-03-30T17:09:36.352Z,12.28
2019-03-30T17:12:06.114Z,14.05
2019-03-30T17:14:36.115Z,11.48
2019-03-30T17:17:05.890Z,11.53
2019-03-30T17:19:35.646Z,12.37
2019-03-30T17:22:12.722Z,10.93
2019-03-30T17:24:48.294Z,11.68
2019-03-30T17:27:20.828Z,10.15
2019-03-30T17:29:50.817Z,10.40
2019-03-30T17:32:22.621Z,9.43
2019-03-30T17:34:52.389Z,10.35
2019-03-30T17:37:22.394Z,11.05
2019-03-30T17:39:52.125Z,11.35
2019-03-30T17:42:21.988Z,13.68
2019-03-30T17:44:51.682Z,10.78
2019-03-30T17:47:21.389Z,11.75
2019-03-30T17:49:51.239Z,13.40
2019-03-30T17:52:21.041Z,12.13
2019-03-30T17:54:50.970Z,13.00
2019-03-30T17:57:22.950Z,12.15
2019-03-30T17:59:56.111Z,14.50
2019-03-30T18:02:28.625Z,15.20
2019-03-30T18:04:58.443Z,12.25
2019-03-30T18:07:28.199Z,14.80
2019-03-30T18:10:03.667Z,12.45
2019-03-30T18:12:33.979Z,13.25
2019-03-30T18:15:06.384Z,12.85
2019-03-30T18:17:36.227Z,15.83
2019-03-30T18:20:06.600Z,11.20
2019-03-30T18:22:36.314Z,13.20
2019-03-30T18:25:06.872Z,15.18
2019-03-30T18:27:36.702Z,13.65
2019-03-30T18:30:07.787Z,11.30
2019-03-30T18:32:37.618Z,12.73
2019-03-30T18:35:08.268Z,12.65
2019-03-30T18:37:38.819Z,12.15
2019-03-30T18:40:10.093Z,10.58
2019-03-30T18:42:39.949Z,10.68
2019-03-30T18:45:17.829Z,11.73
2019-03-30T18:47:48.458Z,11.90
2019-03-30T18:50:18.281Z,118.70
2019-03-30T18:52:48.199Z,28.05
2019-03-30T18:55:23.393Z,15.48
2019-03-30T18:57:53.215Z,12.33
2019-03-30T19:00:28.338Z,12.35
2019-03-30T19:02:58.099Z,15.70
2019-03-30T19:05:27.990Z,12.33
2019-03-30T19:07:57.832Z,11.88
2019-03-30T19:10:27.598Z,10.48
2019-03-30T19:12:57.343Z,11.30
2019-03-30T19:15:43.618Z,12.07
2019-03-30T19:17:59.023Z,10.80
2019-03-30T19:20:28.896Z,15.45
2019-03-30T19:23:00.261Z,13.32
2019-03-30T19:25:30.492Z,14.15
2019-03-30T19:28:00.684Z,16.20
2019-03-30T19:30:30.891Z,17.95
2019-03-30T19:33:01.044Z,18.45
2019-03-30T19:35:31.234Z,15.18
2019-03-30T19:38:10.955Z,20.48
2019-03-30T19:40:43.113Z,17.20
2019-03-30T19:43:14.648Z,17.85
2019-03-30T19:45:47.859Z,12.75
2019-03-30T19:48:17.818Z,17.27
2019-03-30T19:50:47.916Z,14.75
2019-03-30T19:53:17.814Z,15.78
2019-03-30T19:55:47.771Z,17.87
2019-03-30T19:58:17.742Z,16.10
2019-03-30T20:00:47.539Z,15.28
2019-03-30T20:03:17.452Z,12.80
2019-03-30T20:05:47.232Z,14.73
2019-03-30T20:08:22.386Z,13.25
2019-03-30T20:10:52.178Z,15.72
2019-03-30T20:13:24.053Z,15.53
2019-03-30T20:15:56.995Z,13.53
2019-03-30T20:18:26.904Z,14.90
2019-03-30T20:20:57.034Z,14.45
2019-03-30T20:23:27.238Z,14.47
2019-03-30T20:25:57.108Z,15.98
2019-03-30T20:28:28.536Z,11.60
2019-03-30T20:30:58.415Z,12.75
2019-03-30T20:33:28.286Z,15.70
2019-03-30T20:35:58.200Z,15.72
2019-03-30T20:38:28.039Z,16.00
2019-03-30T20:40:57.779Z,12.25
2019-03-30T20:43:27.651Z,13.40
2019-03-30T20:45:57.479Z,16.50
2019-03-30T20:48:27.330Z,14.45
2019-03-30T20:50:57.173Z,11.30
2019-03-30T20:53:26.921Z,14.83
2019-03-30T20:55:56.692Z,12.45
2019-03-30T20:58:26.432Z,12.33
2019-03-30T21:00:56.239Z,12.70
2019-03-30T21:03:26.136Z,10.98
2019-03-30T21:05:55.921Z,12.95
2019-03-30T21:08:25.756Z,13.75
2019-03-30T21:10:58.633Z,10.75
2019-03-30T21:13:29.000Z,12.73
2019-03-30T21:15:58.792Z,12.78
2019-03-30T21:18:28.574Z,13.05
2019-03-30T21:20:58.350Z,15.80
2019-03-30T21:23:28.100Z,16.52
2019-03-30T21:25:57.891Z,19.92
2019-03-30T21:28:27.695Z,17.15
2019-03-30T21:30:57.460Z,15.45
2019-03-30T21:33:27.288Z,15.53
2019-03-30T21:35:57.096Z,13.35
2019-03-30T21:38:26.857Z,15.25
2019-03-30T21:40:56.519Z,20.12
2019-03-30T21:43:26.347Z,17.65
2019-03-30T21:45:56.002Z,48.90
2019-03-30T21:48:25.822Z,15.98
2019-03-30T21:50:55.586Z,12.98
2019-03-30T21:53:25.306Z,17.07
2019-03-30T21:55:55.078Z,16.52
2019-03-30T21:58:24.954Z,15.00
2019-03-30T22:00:54.760Z,15.68
2019-03-30T22:03:24.632Z,15.93
2019-03-30T22:05:54.919Z,16.42
2019-03-30T22:08:24.832Z,15.32
2019-03-30T22:10:54.527Z,15.40
2019-03-30T22:13:24.411Z,17.30
2019-03-30T22:15:54.241Z,17.87
2019-03-30T22:18:23.986Z,21.93
2019-03-30T22:20:53.797Z,20.27
2019-03-30T22:23:23.649Z,23.15
2019-03-30T22:25:53.511Z,35.13
2019-03-30T22:28:24.541Z,22.00
2019-03-30T22:30:54.468Z,19.30
2019-03-30T22:33:24.413Z,24.98
2019-03-30T22:35:54.567Z,24.20
2019-03-30T22:38:24.540Z,25.52
2019-03-30T22:40:54.390Z,23.73
2019-03-30T22:43:24.130Z,30.10
2019-03-30T22:45:56.001Z,24.20
2019-03-30T22:48:25.772Z,31.12
2019-03-30T22:50:55.532Z,29.92
2019-03-30T22:53:25.389Z,29.90
2019-03-30T22:55:55.374Z,28.65
2019-03-30T22:58:25.347Z,31.23
2019-03-30T23:01:04.952Z,30.95
2019-03-30T23:03:34.727Z,36.68
2019-03-30T23:06:04.461Z,37.95
2019-03-30T23:08:34.138Z,36.38
2019-03-30T23:11:04.037Z,36.33
2019-03-30T23:13:33.807Z,37.65
2019-03-30T23:16:03.616Z,41.42
2019-03-30T23:18:33.396Z,39.40
2019-03-30T23:21:03.182Z,38.42
2019-03-30T23:23:33.058Z,32.35
2019-03-30T23:26:02.796Z,38.33
2019-03-30T23:28:32.583Z,39.98
2019-03-30T23:31:02.508Z,42.13
2019-03-30T23:33:35.009Z,39.75
2019-03-30T23:36:04.813Z,42.75
2019-03-30T23:38:34.482Z,40.33
2019-03-30T23:41:04.325Z,41.13
2019-03-30T23:43:34.059Z,46.77
2019-03-30T23:46:04.101Z,44.05
2019-03-30T23:48:33.940Z,39.92
2019-03-30T23:51:03.716Z,38.33
2019-03-30T23:53:33.486Z,40.98
2019-03-30T23:56:03.439Z,36.25
2019-03-30T23:58:33.310Z,39.13
